createdAt,value
2017-12-27T00:00:02.135Z,99.99
2017-12-27T00:01:02.241Z,99.99
2017-12-27T00:02:02.247Z,99.99
2017-12-27T00:03:02.158Z,99.99
2017-12-27T00:04:02.160Z,99.99
2017-12-27T00:05:02.206Z,99.99
2017-12-27T00:06:02.226Z,99.99
2017-12-27T00:07:02.180Z,99.99
2017-12-27T00:08:02.180Z,99.99
2017-12-27T00:09:02.229Z,99.99
2017-12-27T00:10:02.223Z,99.99
2017-12-27T00:11:02.143Z,99.99
2017-12-27T00:12:02.282Z,99.99
2017-12-27T00:13:02.212Z,99.99
2017-12-27T00:14:02.213Z,99.99
2017-12-27T00:15:02.283Z,99.99
2017-12-27T00:16:02.209Z,99.99
2017-12-27T00:17:02.286Z,99.99
2017-12-27T00:18:02.222Z,99.99
2017-12-27T00:19:02.287Z,99.99
2017-12-27T00:20:02.225Z,99.99
2017-12-27T00:21:02.285Z,99.99
2017-12-27T00:22:02.221Z,99.99
2017-12-27T00:23:02.221Z,99.99
2017-12-27T00:24:02.288Z,99.99
2017-12-27T00:25:02.224Z,99.99
2017-12-27T00:26:02.292Z,99.99
2017-12-27T00:27:02.229Z,99.99
2017-12-27T00:28:02.319Z,99.99
2017-12-27T00:29:02.226Z,99.99
2017-12-27T00:30:02.297Z,99.99
2017-12-27T00:31:02.264Z,99.99
2017-12-27T00:32:02.281Z,99.99
2017-12-27T00:33:02.176Z,99.99
2017-12-27T00:34:02.199Z,99.99
2017-12-27T00:35:02.264Z,99.99
2017-12-27T00:36:02.226Z,99.99
2017-12-27T00:37:02.243Z,99.99
2017-12-27T00:38:02.185Z,99.99
2017-12-27T00:39:02.235Z,99.99
2017-12-27T00:40:02.283Z,99.99
2017-12-27T00:41:02.200Z,99.99
2017-12-27T00:42:02.297Z,99.99
2017-12-27T00:43:02.231Z,99.99
2017-12-27T00:44:02.300Z,99.99
2017-12-27T00:45:02.234Z,99.99
2017-12-27T00:46:02.301Z,99.99
2017-12-27T00:47:02.239Z,99.99
2017-12-27T00:48:02.303Z,99.99
2017-12-27T00:49:02.239Z,99.99
2017-12-27T00:50:02.238Z,99.99
2017-12-27T00:51:02.304Z,99.99
2017-12-27T00:52:02.308Z,99.99
2017-12-27T00:53:02.303Z,99.99
2017-12-27T00:54:02.238Z,99.99
2017-12-27T00:55:02.306Z,99.99
2017-12-27T00:56:02.233Z,99.99
2017-12-27T00:57:02.310Z,99.99
2017-12-27T00:58:02.235Z,99.99
2017-12-27T00:59:02.309Z,99.99
2017-12-27T01:00:02.312Z,99.99
2017-12-27T01:01:02.310Z,99.99
2017-12-27T01:02:02.240Z,99.99
2017-12-27T01:03:02.242Z,99.99
2017-12-27T01:04:02.319Z,99.99
2017-12-27T01:05:02.240Z,99.99
2017-12-27T01:06:02.268Z,99.99
2017-12-27T01:07:02.244Z,99.99
2017-12-27T01:08:02.249Z,99.99
2017-12-27T01:09:02.313Z,99.99
2017-12-27T01:10:02.247Z,99.99
2017-12-27T01:11:02.245Z,99.99
2017-12-27T01:12:02.326Z,99.96
2017-12-27T01:13:02.249Z,99.72
2017-12-27T01:14:02.345Z,99.59
2017-12-27T01:15:02.321Z,99.34
2017-12-27T01:16:02.252Z,99.10
2017-12-27T01:17:02.321Z,98.88
2017-12-27T01:18:02.257Z,98.55
2017-12-27T01:19:02.251Z,98.37
2017-12-27T01:20:02.347Z,98.18
2017-12-27T01:21:02.322Z,98.02
2017-12-27T01:22:02.090Z,97.74
2017-12-27T01:23:02.091Z,97.58
2017-12-27T01:24:02.095Z,97.39
2017-12-27T01:25:02.092Z,97.34
2017-12-27T01:26:02.096Z,97.18
2017-12-27T01:27:02.101Z,97.07
2017-12-27T01:28:02.095Z,97.04
2017-12-27T01:29:02.094Z,96.99
2017-12-27T01:30:02.099Z,96.96
2017-12-27T01:31:02.095Z,96.93
2017-12-27T01:32:02.285Z,96.96
2017-12-27T01:33:02.195Z,97.04
2017-12-27T01:34:02.288Z,97.10
2017-12-27T01:35:02.270Z,96.99
2017-12-27T01:36:02.196Z,96.93
2017-12-27T01:37:02.268Z,96.83
2017-12-27T01:38:02.208Z,96.66
2017-12-27T01:39:02.220Z,96.39
2017-12-27T01:40:02.296Z,96.20
2017-12-27T01:41:02.193Z,96.09
2017-12-27T01:42:02.233Z,96.07
2017-12-27T01:43:02.305Z,96.04
2017-12-27T01:44:02.307Z,95.83
2017-12-27T01:45:02.286Z,95.66
2017-12-27T01:46:02.271Z,95.56
2017-12-27T01:47:02.307Z,95.37
2017-12-27T01:48:02.305Z,95.28
2017-12-27T01:49:02.243Z,95.18
2017-12-27T01:50:02.330Z,95.07
2017-12-27T01:51:02.334Z,94.93
2017-12-27T01:52:02.274Z,94.72
2017-12-27T01:53:02.273Z,94.72
2017-12-27T01:54:02.342Z,94.69
2017-12-27T01:55:02.342Z,94.83
2017-12-27T01:56:02.307Z,94.75
2017-12-27T01:57:02.345Z,94.83
2017-12-27T01:58:02.282Z,94.72
2017-12-27T01:59:02.345Z,94.59
2017-12-27T02:00:02.414Z,94.53
2017-12-27T02:01:02.283Z,94.69
2017-12-27T02:02:02.357Z,94.80
2017-12-27T02:03:02.286Z,94.64
2017-12-27T02:04:02.349Z,94.40
2017-12-27T02:05:02.283Z,94.23
2017-12-27T02:06:02.350Z,94.15
2017-12-27T02:07:02.286Z,93.99
2017-12-27T02:08:02.349Z,93.91
2017-12-27T02:09:02.282Z,93.85
2017-12-27T02:10:02.353Z,93.89
2017-12-27T02:11:02.289Z,93.94
2017-12-27T02:12:02.355Z,93.91
2017-12-27T02:13:02.353Z,93.81
2017-12-27T02:14:02.289Z,93.59
2017-12-27T02:15:02.395Z,93.24
2017-12-27T02:16:02.291Z,93.10
2017-12-27T02:17:02.367Z,92.95
2017-12-27T02:18:02.296Z,93.10
2017-12-27T02:19:02.291Z,93.16
2017-12-27T02:20:02.361Z,93.26
2017-12-27T02:21:02.290Z,93.35
2017-12-27T02:22:02.310Z,93.43
2017-12-27T02:23:02.324Z,93.51
2017-12-27T02:24:02.342Z,93.59
2017-12-27T02:25:02.232Z,93.67
2017-12-27T02:26:02.348Z,93.72
2017-12-27T02:27:02.251Z,93.78
2017-12-27T02:28:02.347Z,93.89
2017-12-27T02:29:02.287Z,93.99
2017-12-27T02:30:02.296Z,93.99
2017-12-27T02:31:02.236Z,94.04
2017-12-27T02:32:02.293Z,94.15
2017-12-27T02:33:02.351Z,94.29
2017-12-27T02:34:02.317Z,94.42
2017-12-27T02:35:02.251Z,94.69
2017-12-27T02:36:02.267Z,94.86
2017-12-27T02:37:02.241Z,94.93
2017-12-27T02:38:02.261Z,94.88
2017-12-27T02:39:02.355Z,94.91
2017-12-27T02:40:02.262Z,94.99
2017-12-27T02:41:02.279Z,95.07
2017-12-27T02:42:02.354Z,95.04
2017-12-27T02:43:02.264Z,95.26
2017-12-27T02:44:02.305Z,95.26
2017-12-27T02:45:02.297Z,95.28
2017-12-27T02:46:02.301Z,95.31
2017-12-27T02:47:02.270Z,95.45
2017-12-27T02:48:02.328Z,95.42
2017-12-27T02:49:02.285Z,95.47
2017-12-27T02:50:02.264Z,95.37
2017-12-27T02:51:02.266Z,95.34
2017-12-27T02:52:02.272Z,95.15
2017-12-27T02:53:02.270Z,95.23
2017-12-27T02:54:02.312Z,95.07
2017-12-27T02:55:02.243Z,94.99
2017-12-27T02:56:02.270Z,94.67
2017-12-27T02:57:02.343Z,94.12
2017-12-27T02:58:02.339Z,93.85
2017-12-27T02:59:02.361Z,93.51
2017-12-27T03:00:02.244Z,93.24
2017-12-27T03:01:02.251Z,93.24
2017-12-27T03:02:02.375Z,93.21
2017-12-27T03:03:02.323Z,93.29
2017-12-27T03:04:02.386Z,93.29
2017-12-27T03:05:02.324Z,93.29
2017-12-27T03:06:02.319Z,93.32
2017-12-27T03:07:02.271Z,93.26
2017-12-27T03:08:02.322Z,93.29
2017-12-27T03:09:02.387Z,93.02
2017-12-27T03:10:02.321Z,92.70
2017-12-27T03:11:02.392Z,92.46
2017-12-27T03:12:02.389Z,92.19
2017-12-27T03:13:02.407Z,92.05
2017-12-27T03:14:02.393Z,92.11
2017-12-27T03:15:02.392Z,92.05
2017-12-27T03:16:02.353Z,92.08
2017-12-27T03:17:02.402Z,92.24
2017-12-27T03:18:02.396Z,92.19
2017-12-27T03:19:02.324Z,92.27
2017-12-27T03:20:02.395Z,92.32
2017-12-27T03:21:02.332Z,92.32
2017-12-27T03:22:02.394Z,92.14
2017-12-27T03:23:02.387Z,92.11
2017-12-27T03:24:02.385Z,92.14
2017-12-27T03:25:02.281Z,92.08
2017-12-27T03:26:02.306Z,91.92
2017-12-27T03:27:02.390Z,91.60
2017-12-27T03:28:02.392Z,91.38
2017-12-27T03:29:02.396Z,91.38
2017-12-27T03:30:02.285Z,91.28
2017-12-27T03:31:02.309Z,90.96
2017-12-27T03:32:02.396Z,90.93
2017-12-27T03:33:02.403Z,90.45
2017-12-27T03:34:02.341Z,90.23
2017-12-27T03:35:02.405Z,89.75
2017-12-27T03:36:02.334Z,89.29
2017-12-27T03:37:02.405Z,89.19
2017-12-27T03:38:02.336Z,89.19
2017-12-27T03:39:02.410Z,89.32
2017-12-27T03:40:02.357Z,89.11
2017-12-27T03:41:02.343Z,89.11
2017-12-27T03:42:02.345Z,88.97
2017-12-27T03:43:02.338Z,88.71
2017-12-27T03:44:02.414Z,88.81
2017-12-27T03:45:02.337Z,88.54
2017-12-27T03:46:02.411Z,88.52
2017-12-27T03:47:02.412Z,87.61
2017-12-27T03:48:02.364Z,87.21
2017-12-27T03:49:02.345Z,86.71
2017-12-27T03:50:02.412Z,86.49
2017-12-27T03:51:02.388Z,86.30
2017-12-27T03:52:02.348Z,86.25
2017-12-27T03:53:02.353Z,86.25
2017-12-27T03:54:02.415Z,86.25
2017-12-27T03:55:02.350Z,86.25
2017-12-27T03:56:02.351Z,86.25
2017-12-27T03:57:02.420Z,86.25
2017-12-27T03:58:02.348Z,86.25
2017-12-27T03:59:02.419Z,86.25
2017-12-27T04:00:02.420Z,86.25
2017-12-27T04:01:02.352Z,86.25
2017-12-27T04:02:02.423Z,86.25
2017-12-27T04:03:02.357Z,86.25
2017-12-27T04:04:02.420Z,86.25
2017-12-27T04:05:02.351Z,86.25
2017-12-27T04:06:02.421Z,86.25
2017-12-27T04:07:02.350Z,86.25
2017-12-27T04:08:02.422Z,86.25
2017-12-27T04:09:02.355Z,86.25
2017-12-27T04:10:02.438Z,86.25
2017-12-27T04:11:02.353Z,86.25
2017-12-27T04:12:02.486Z,86.25
2017-12-27T04:13:02.359Z,86.25
2017-12-27T04:14:02.432Z,86.25
2017-12-27T04:15:02.363Z,86.25
2017-12-27T04:16:02.430Z,86.25
2017-12-27T04:17:02.360Z,86.25
2017-12-27T04:18:02.430Z,86.25
2017-12-27T04:19:02.434Z,86.25
2017-12-27T04:20:02.363Z,86.25
2017-12-27T04:21:02.431Z,86.25
2017-12-27T04:22:02.369Z,86.25
2017-12-27T04:23:02.394Z,86.25
2017-12-27T04:24:02.413Z,86.25
2017-12-27T04:25:02.302Z,86.25
2017-12-27T04:26:02.304Z,86.25
2017-12-27T04:27:02.289Z,86.25
2017-12-27T04:28:02.309Z,86.25
2017-12-27T04:29:02.305Z,86.25
2017-12-27T04:30:02.361Z,86.25
2017-12-27T04:31:02.363Z,86.25
2017-12-27T04:32:02.295Z,86.25
2017-12-27T04:33:02.404Z,86.25
2017-12-27T04:34:02.363Z,86.25
2017-12-27T04:35:02.374Z,86.25
2017-12-27T04:36:02.399Z,86.25
2017-12-27T04:37:02.373Z,86.25
2017-12-27T04:38:02.391Z,86.25
2017-12-27T04:39:02.423Z,86.25
2017-12-27T04:40:02.326Z,86.25
2017-12-27T04:41:02.432Z,86.25
2017-12-27T04:42:02.426Z,86.25
2017-12-27T04:43:02.447Z,86.25
2017-12-27T04:44:02.379Z,86.25
2017-12-27T04:45:02.445Z,86.25
2017-12-27T04:46:02.378Z,86.25
2017-12-27T04:47:02.452Z,86.25
2017-12-27T04:48:02.382Z,86.25
2017-12-27T04:49:02.474Z,86.25
2017-12-27T04:50:02.381Z,86.25
2017-12-27T04:51:02.450Z,86.25
2017-12-27T04:52:02.383Z,86.25
2017-12-27T04:53:02.451Z,86.25
2017-12-27T04:54:02.385Z,86.25
2017-12-27T04:55:02.451Z,86.25
2017-12-27T04:56:02.380Z,86.25
2017-12-27T04:57:02.452Z,86.25
2017-12-27T04:58:02.452Z,86.25
2017-12-27T04:59:02.381Z,86.25
2017-12-27T05:00:02.456Z,86.25
2017-12-27T05:01:02.391Z,86.25
2017-12-27T05:02:02.454Z,86.25
2017-12-27T05:03:02.394Z,86.25
2017-12-27T05:04:02.459Z,86.25
2017-12-27T05:05:02.394Z,86.25
2017-12-27T05:06:02.463Z,86.25
2017-12-27T05:07:02.395Z,86.25
2017-12-27T05:08:02.461Z,86.25
2017-12-27T05:09:02.461Z,86.25
2017-12-27T05:10:02.397Z,86.25
2017-12-27T05:11:02.460Z,86.25
2017-12-27T05:12:02.395Z,86.25
2017-12-27T05:13:02.464Z,86.25
2017-12-27T05:14:02.464Z,86.25
2017-12-27T05:15:02.399Z,86.25
2017-12-27T05:16:02.489Z,86.25
2017-12-27T05:17:02.468Z,86.25
2017-12-27T05:18:02.400Z,86.25
2017-12-27T05:19:02.403Z,86.25
2017-12-27T05:20:02.403Z,86.25
2017-12-27T05:21:02.469Z,86.25
2017-12-27T05:22:02.405Z,86.25
2017-12-27T05:23:02.402Z,86.25
2017-12-27T05:24:02.474Z,86.25
2017-12-27T05:25:02.405Z,86.25
2017-12-27T05:26:02.469Z,86.25
2017-12-27T05:27:02.456Z,86.25
2017-12-27T05:28:02.403Z,86.25
2017-12-27T05:29:02.473Z,86.25
2017-12-27T05:30:02.404Z,86.25
2017-12-27T05:31:02.410Z,86.25
2017-12-27T05:32:02.409Z,86.25
2017-12-27T05:33:02.412Z,86.25
2017-12-27T05:34:02.416Z,86.25
2017-12-27T05:35:02.487Z,86.25
2017-12-27T05:36:02.476Z,86.25
2017-12-27T05:37:02.409Z,86.25
2017-12-27T05:38:02.479Z,86.25
2017-12-27T05:39:02.417Z,86.25
2017-12-27T05:40:02.410Z,86.25
2017-12-27T05:41:02.412Z,86.25
2017-12-27T05:42:02.414Z,86.25
2017-12-27T05:43:02.483Z,86.25
2017-12-27T05:44:02.417Z,86.25
2017-12-27T05:45:02.481Z,86.25
2017-12-27T05:46:02.482Z,86.25
2017-12-27T05:47:02.416Z,86.25
2017-12-27T05:48:02.485Z,86.25
2017-12-27T05:49:02.417Z,86.25
2017-12-27T05:50:02.486Z,86.25
2017-12-27T05:51:02.423Z,86.25
2017-12-27T05:52:02.486Z,86.25
2017-12-27T05:53:02.491Z,86.25
2017-12-27T05:54:02.420Z,86.25
2017-12-27T05:55:02.486Z,86.25
2017-12-27T05:56:02.422Z,86.25
2017-12-27T05:57:02.491Z,86.25
2017-12-27T05:58:02.425Z,86.25
2017-12-27T05:59:02.489Z,86.25
2017-12-27T06:00:02.425Z,86.25
2017-12-27T06:01:02.492Z,86.25
2017-12-27T06:02:02.424Z,86.25
2017-12-27T06:03:02.492Z,86.25
2017-12-27T06:04:02.420Z,86.25
2017-12-27T06:05:02.498Z,86.25
2017-12-27T06:06:02.494Z,86.25
2017-12-27T06:07:02.536Z,86.25
2017-12-27T06:08:02.494Z,86.25
2017-12-27T06:09:02.427Z,86.25
2017-12-27T06:10:02.705Z,86.25
2017-12-27T06:11:02.498Z,86.25
2017-12-27T06:12:02.500Z,86.25
2017-12-27T06:13:02.447Z,86.25
2017-12-27T06:14:02.458Z,86.25
2017-12-27T06:15:02.445Z,86.25
2017-12-27T06:16:02.390Z,86.25
2017-12-27T06:17:02.388Z,86.25
2017-12-27T06:18:02.367Z,86.25
2017-12-27T06:19:02.436Z,86.25
2017-12-27T06:20:02.364Z,86.25
2017-12-27T06:21:02.436Z,86.25
2017-12-27T06:22:02.457Z,86.25
2017-12-27T06:23:02.503Z,86.25
2017-12-27T06:24:02.439Z,86.25
2017-12-27T06:25:02.505Z,86.25
2017-12-27T06:26:02.435Z,86.25
2017-12-27T06:27:02.508Z,86.25
2017-12-27T06:28:02.518Z,86.25
2017-12-27T06:29:02.443Z,86.25
2017-12-27T06:30:02.509Z,79.44
2017-12-27T06:31:02.442Z,79.44
2017-12-27T06:32:02.511Z,79.44
2017-12-27T06:33:02.439Z,79.44
2017-12-27T06:34:02.412Z,79.71
2017-12-27T06:35:02.379Z,79.91
2017-12-27T06:36:02.501Z,79.99
2017-12-27T06:37:02.420Z,80.07
2017-12-27T06:38:02.412Z,79.75
2017-12-27T06:39:02.509Z,79.97
2017-12-27T06:40:02.503Z,80.15
2017-12-27T06:41:02.484Z,80.02
2017-12-27T06:42:02.486Z,79.97
2017-12-27T06:43:02.459Z,80.07
2017-12-27T06:44:02.399Z,80.10
2017-12-27T06:45:02.455Z,80.39
2017-12-27T06:46:02.552Z,80.39
2017-12-27T06:47:02.402Z,80.31
2017-12-27T06:48:02.423Z,79.81
2017-12-27T06:49:02.517Z,79.81
2017-12-27T06:50:02.431Z,79.68
2017-12-27T06:51:02.511Z,79.71
2017-12-27T06:52:02.488Z,79.75
2017-12-27T06:53:02.524Z,79.65
2017-12-27T06:54:02.458Z,79.63
2017-12-27T06:55:02.524Z,79.60
2017-12-27T06:56:02.456Z,78.97
2017-12-27T06:57:02.525Z,79.17
2017-12-27T06:58:02.458Z,79.41
2017-12-27T06:59:02.528Z,79.57
2017-12-27T07:00:02.458Z,79.75
2017-12-27T07:01:02.527Z,79.36
2017-12-27T07:02:02.464Z,79.81
2017-12-27T07:03:02.530Z,80.18
2017-12-27T07:04:02.467Z,80.15
2017-12-27T07:05:02.533Z,80.39
2017-12-27T07:06:02.465Z,80.52
2017-12-27T07:07:02.531Z,80.73
2017-12-27T07:08:02.468Z,80.26
2017-12-27T07:09:02.563Z,80.33
2017-12-27T07:10:02.533Z,80.57
2017-12-27T07:11:02.471Z,80.87
2017-12-27T07:12:02.538Z,80.63
2017-12-27T07:13:02.322Z,80.13
2017-12-27T07:14:02.351Z,80.52
2017-12-27T07:15:02.354Z,81.05
2017-12-27T07:16:02.413Z,81.98
2017-12-27T07:17:02.406Z,82.37
2017-12-27T07:18:02.428Z,82.56
2017-12-27T07:19:02.402Z,82.98
2017-12-27T07:20:02.444Z,83.22
2017-12-27T07:21:02.383Z,83.40
2017-12-27T07:22:02.444Z,83.46
2017-12-27T07:23:02.473Z,83.09
2017-12-27T07:24:02.473Z,82.51
2017-12-27T07:25:02.548Z,81.71
2017-12-27T07:26:02.476Z,81.29
2017-12-27T07:28:02.486Z,0.01
2017-12-27T07:29:02.549Z,80.97
2017-12-27T07:30:02.482Z,80.87
2017-12-27T07:31:02.546Z,81.18
2017-12-27T07:32:02.484Z,81.32
2017-12-27T07:33:02.549Z,81.58
2017-12-27T07:34:02.482Z,81.87
2017-12-27T07:35:02.548Z,82.06
2017-12-27T07:36:02.482Z,82.08
2017-12-27T07:37:02.551Z,82.08
2017-12-27T07:38:02.482Z,81.92
2017-12-27T07:39:02.511Z,82.00
2017-12-27T07:40:02.553Z,81.95
2017-12-27T07:41:02.486Z,81.79
2017-12-27T07:42:02.487Z,80.89
2017-12-27T07:43:02.554Z,79.71
2017-12-27T07:44:02.489Z,79.49
2017-12-27T07:45:02.488Z,78.91
2017-12-27T07:46:02.553Z,78.09
2017-12-27T07:47:02.493Z,77.15
2017-12-27T07:48:02.562Z,76.94
2017-12-27T07:49:02.491Z,76.81
2017-12-27T07:50:02.557Z,76.49
2017-12-27T07:51:02.488Z,76.60
2017-12-27T07:52:02.559Z,76.70
2017-12-27T07:53:02.495Z,76.65
2017-12-27T07:54:02.558Z,76.49
2017-12-27T07:55:02.493Z,76.52
2017-12-27T07:56:02.560Z,76.83
2017-12-27T07:57:02.495Z,76.83
2017-12-27T07:58:02.567Z,76.83
2017-12-27T07:59:02.496Z,77.41
2017-12-27T08:00:02.567Z,77.17
2017-12-27T08:01:02.497Z,77.28
2017-12-27T08:02:02.565Z,77.67
2017-12-27T08:03:02.536Z,77.81
2017-12-27T08:04:02.558Z,78.01
2017-12-27T08:05:02.535Z,78.12
2017-12-27T08:06:02.497Z,78.33
2017-12-27T08:07:02.452Z,78.67
2017-12-27T08:08:02.468Z,78.78
2017-12-27T08:09:02.520Z,78.91
2017-12-27T08:10:02.557Z,79.17
2017-12-27T08:11:02.537Z,79.52
2017-12-27T08:12:02.474Z,79.68
2017-12-27T08:13:02.576Z,79.79
2017-12-27T08:14:02.503Z,80.15
2017-12-27T08:15:02.579Z,80.31
2017-12-27T08:16:02.504Z,80.65
2017-12-27T08:17:02.573Z,80.89
2017-12-27T08:18:02.511Z,81.05
2017-12-27T08:19:02.576Z,81.21
2017-12-27T08:20:02.504Z,81.50
2017-12-27T08:21:02.576Z,81.29
2017-12-27T08:22:02.508Z,81.40
2017-12-27T08:23:02.542Z,81.68
2017-12-27T08:24:02.501Z,81.95
2017-12-27T08:25:02.501Z,81.95
2017-12-27T08:26:02.568Z,81.98
2017-12-27T08:27:02.543Z,82.24
2017-12-27T08:28:02.520Z,82.32
2017-12-27T08:29:02.517Z,82.59
2017-12-27T08:30:02.508Z,83.06
2017-12-27T08:31:02.467Z,83.14
2017-12-27T08:32:02.478Z,83.28
2017-12-27T08:33:02.509Z,83.91
2017-12-27T08:34:02.583Z,83.75
2017-12-27T08:35:02.510Z,83.73
2017-12-27T08:36:02.594Z,84.07
2017-12-27T08:37:02.513Z,84.07
2017-12-27T08:38:02.586Z,84.20
2017-12-27T08:39:02.588Z,84.44
2017-12-27T08:40:02.520Z,84.50
2017-12-27T08:41:02.617Z,84.71
2017-12-27T08:42:02.520Z,84.92
2017-12-27T08:43:02.583Z,85.13
2017-12-27T08:44:02.577Z,85.30
2017-12-27T08:45:02.537Z,85.46
2017-12-27T08:46:02.459Z,85.64
2017-12-27T08:47:02.491Z,85.43
2017-12-27T08:48:02.552Z,85.64
2017-12-27T08:49:02.494Z,85.64
2017-12-27T08:50:02.593Z,85.91
2017-12-27T08:51:02.558Z,86.01
2017-12-27T08:52:02.503Z,86.20
2017-12-27T08:53:02.548Z,86.12
2017-12-27T08:54:02.522Z,86.12
2017-12-27T08:55:02.529Z,86.17
2017-12-27T08:56:02.541Z,86.15
2017-12-27T08:57:02.466Z,86.28
2017-12-27T08:58:02.540Z,86.22
2017-12-27T08:59:02.543Z,86.65
2017-12-27T09:00:02.538Z,86.49
2017-12-27T09:01:02.546Z,86.54
2017-12-27T09:02:02.510Z,86.65
2017-12-27T09:03:02.535Z,86.71
2017-12-27T09:04:02.602Z,87.02
2017-12-27T09:05:02.529Z,87.40
2017-12-27T09:06:02.603Z,87.26
2017-12-27T09:07:02.531Z,87.53
2017-12-27T09:08:02.605Z,87.67
2017-12-27T09:09:02.537Z,87.43
2017-12-27T09:10:02.607Z,87.64
2017-12-27T09:11:02.536Z,87.48
2017-12-27T09:12:02.606Z,87.61
2017-12-27T09:13:02.437Z,87.82
2017-12-27T09:14:02.495Z,88.15
2017-12-27T09:15:02.564Z,88.04
2017-12-27T09:16:02.533Z,87.98
2017-12-27T09:17:02.565Z,88.57
2017-12-27T09:18:02.461Z,88.60
2017-12-27T09:19:02.478Z,88.65
2017-12-27T09:20:02.563Z,88.39
2017-12-27T09:21:02.466Z,88.62
2017-12-27T09:22:02.559Z,88.65
2017-12-27T09:23:02.496Z,88.68
2017-12-27T09:24:02.539Z,88.39
2017-12-27T09:25:02.613Z,88.60
2017-12-27T09:26:02.543Z,88.52
2017-12-27T09:27:02.614Z,88.62
2017-12-27T09:28:02.541Z,88.28
2017-12-27T09:29:02.617Z,88.36
2017-12-27T09:30:02.539Z,88.20
2017-12-27T09:31:02.617Z,88.54
2017-12-27T09:32:02.548Z,88.46
2017-12-27T09:33:02.619Z,88.23
2017-12-27T09:34:02.582Z,88.44
2017-12-27T09:35:02.497Z,88.20
2017-12-27T09:36:02.620Z,88.20
2017-12-27T09:37:02.582Z,88.39
2017-12-27T09:38:02.608Z,88.39
2017-12-27T09:39:02.610Z,88.52
2017-12-27T09:40:02.562Z,88.09
2017-12-27T09:41:02.534Z,87.93
2017-12-27T09:42:02.521Z,88.01
2017-12-27T09:43:02.545Z,87.90
2017-12-27T09:44:02.625Z,87.34
2017-12-27T09:45:02.553Z,87.64
2017-12-27T09:46:02.628Z,87.69
2017-12-27T09:47:02.566Z,87.85
2017-12-27T09:48:02.639Z,87.59
2017-12-27T09:49:02.558Z,87.67
2017-12-27T09:50:02.631Z,87.53
2017-12-27T09:51:02.562Z,87.64
2017-12-27T09:52:02.631Z,87.88
2017-12-27T09:53:02.561Z,88.07
2017-12-27T09:54:02.643Z,88.12
2017-12-27T09:55:02.568Z,88.28
2017-12-27T09:56:02.634Z,88.23
2017-12-27T09:57:02.562Z,88.09
2017-12-27T09:58:02.633Z,87.98
2017-12-27T09:59:02.561Z,87.98
2017-12-27T10:00:02.641Z,88.12
2017-12-27T10:01:02.566Z,88.46
2017-12-27T10:02:02.638Z,88.65
2017-12-27T10:03:02.640Z,88.62
2017-12-27T10:04:02.570Z,88.65
2017-12-27T10:05:02.639Z,88.62
2017-12-27T10:06:02.565Z,88.50
2017-12-27T10:07:02.640Z,88.62
2017-12-27T10:08:02.571Z,88.50
2017-12-27T10:09:02.642Z,88.44
2017-12-27T10:10:02.564Z,88.89
2017-12-27T10:11:02.641Z,89.03
2017-12-27T10:12:02.574Z,89.03
2017-12-27T10:13:02.644Z,89.27
2017-12-27T10:14:02.495Z,89.67
2017-12-27T10:15:02.653Z,89.56
2017-12-27T10:16:02.591Z,90.07
2017-12-27T10:17:02.585Z,90.26
2017-12-27T10:18:02.594Z,90.02
2017-12-27T10:19:02.497Z,90.13
2017-12-27T10:20:02.497Z,90.26
2017-12-27T10:21:02.536Z,90.42
2017-12-27T10:22:02.593Z,90.18
2017-12-27T10:23:02.594Z,90.13
2017-12-27T10:24:02.580Z,90.15
2017-12-27T10:25:02.652Z,89.97
2017-12-27T10:26:02.579Z,89.88
2017-12-27T10:27:02.586Z,89.83
2017-12-27T10:28:02.740Z,89.86
2017-12-27T10:29:02.653Z,89.88
2017-12-27T10:30:02.580Z,89.80
2017-12-27T10:31:02.655Z,89.78
2017-12-27T10:32:02.626Z,89.80
2017-12-27T10:33:02.653Z,89.80
2017-12-27T10:34:02.605Z,89.75
2017-12-27T10:35:02.538Z,89.64
2017-12-27T10:36:02.533Z,89.59
2017-12-27T10:37:02.584Z,89.72
2017-12-27T10:38:02.565Z,89.56
2017-12-27T10:39:02.647Z,89.62
2017-12-27T10:40:02.645Z,89.51
2017-12-27T10:41:02.607Z,89.48
2017-12-27T10:42:02.658Z,89.62
2017-12-27T10:43:02.635Z,89.56
2017-12-27T10:44:02.615Z,89.67
2017-12-27T10:45:02.520Z,89.51
2017-12-27T10:46:02.568Z,89.48
2017-12-27T10:47:02.556Z,89.54
2017-12-27T10:48:02.612Z,89.67
2017-12-27T10:49:02.570Z,89.78
2017-12-27T10:50:02.644Z,89.94
2017-12-27T10:51:02.571Z,89.88
2017-12-27T10:52:02.613Z,89.59
2017-12-27T10:53:02.523Z,89.59
2017-12-27T10:54:02.549Z,89.64
2017-12-27T10:55:02.539Z,89.67
2017-12-27T10:56:02.574Z,89.62
2017-12-27T10:57:02.537Z,89.51
2017-12-27T10:58:02.551Z,89.40
2017-12-27T10:59:02.540Z,89.56
2017-12-27T11:00:02.527Z,89.62
2017-12-27T11:01:02.634Z,89.83
2017-12-27T11:02:02.598Z,89.70
2017-12-27T11:03:02.580Z,89.54
2017-12-27T11:04:02.619Z,89.27
2017-12-27T11:05:02.567Z,89.03
2017-12-27T11:06:02.612Z,88.76
2017-12-27T11:07:02.635Z,88.54
2017-12-27T11:08:02.581Z,88.62
2017-12-27T11:09:02.579Z,88.57
2017-12-27T11:10:02.644Z,88.76
2017-12-27T11:11:02.577Z,88.57
2017-12-27T11:12:02.599Z,88.50
2017-12-27T11:13:02.644Z,88.41
2017-12-27T11:14:02.641Z,88.28
2017-12-27T11:15:02.619Z,88.09
2017-12-27T11:16:02.584Z,88.17
2017-12-27T11:17:02.568Z,88.25
2017-12-27T11:18:02.640Z,88.12
2017-12-27T11:19:02.607Z,87.82
2017-12-27T11:20:02.625Z,87.74
2017-12-27T11:21:02.592Z,87.59
2017-12-27T11:22:02.565Z,87.64
2017-12-27T11:23:02.563Z,87.51
2017-12-27T11:24:02.771Z,87.64
2017-12-27T11:25:02.686Z,87.80
2017-12-27T11:26:02.688Z,87.85
2017-12-27T11:27:02.620Z,87.93
2017-12-27T11:28:02.687Z,87.72
2017-12-27T11:29:02.614Z,87.69
2017-12-27T11:30:02.688Z,87.90
2017-12-27T11:31:02.623Z,87.69
2017-12-27T11:32:02.700Z,87.69
2017-12-27T11:33:02.620Z,87.72
2017-12-27T11:34:02.693Z,87.77
2017-12-27T11:35:02.620Z,87.80
2017-12-27T11:36:02.693Z,87.51
2017-12-27T11:37:02.642Z,87.61
2017-12-27T11:38:02.695Z,87.59
2017-12-27T11:39:02.628Z,87.48
2017-12-27T11:40:02.705Z,87.48
2017-12-27T11:41:02.623Z,87.56
2017-12-27T11:42:02.773Z,87.59
2017-12-27T11:43:02.697Z,87.37
2017-12-27T11:44:02.630Z,87.10
2017-12-27T11:45:02.697Z,86.91
2017-12-27T11:47:02.700Z,87.21
2017-12-27T11:48:02.635Z,87.13
2017-12-27T11:49:02.702Z,87.13
2017-12-27T11:50:02.635Z,86.73
2017-12-27T11:51:02.709Z,86.41
2017-12-27T11:52:02.636Z,86.87
2017-12-27T11:53:02.706Z,86.60
2017-12-27T11:54:02.636Z,86.25
2017-12-27T11:55:02.711Z,86.52
2017-12-27T11:56:02.635Z,86.36
2017-12-27T11:57:02.709Z,86.12
2017-12-27T11:58:02.639Z,86.01
2017-12-27T11:59:02.706Z,85.96
2017-12-27T12:00:02.638Z,85.64
2017-12-27T12:01:02.708Z,85.72
2017-12-27T12:02:02.640Z,85.58
2017-12-27T12:03:02.714Z,85.30
2017-12-27T12:04:02.641Z,85.56
2017-12-27T12:05:02.713Z,85.00
2017-12-27T12:06:02.635Z,84.89
2017-12-27T12:07:02.711Z,84.92
2017-12-27T12:08:02.639Z,84.68
2017-12-27T12:09:02.713Z,84.47
2017-12-27T12:10:02.664Z,84.28
2017-12-27T12:11:02.712Z,84.42
2017-12-27T12:12:02.645Z,84.44
2017-12-27T12:13:02.712Z,84.26
2017-12-27T12:14:02.648Z,84.23
2017-12-27T12:15:02.716Z,84.31
2017-12-27T12:16:02.648Z,84.23
2017-12-27T12:17:02.719Z,83.78
2017-12-27T12:18:02.654Z,84.09
2017-12-27T12:19:02.719Z,84.05
2017-12-27T12:20:02.650Z,84.09
2017-12-27T12:21:02.722Z,83.83
2017-12-27T12:22:02.653Z,84.15
2017-12-27T12:23:02.725Z,83.94
2017-12-27T12:24:02.715Z,84.31
2017-12-27T12:25:02.687Z,84.39
2017-12-27T12:26:02.607Z,84.42
2017-12-27T12:27:02.670Z,84.39
2017-12-27T12:28:02.627Z,83.94
2017-12-27T12:29:02.724Z,83.73
2017-12-27T12:30:02.723Z,83.70
2017-12-27T12:31:02.668Z,83.65
2017-12-27T12:32:02.612Z,83.65
2017-12-27T12:33:02.626Z,83.62
2017-12-27T12:34:02.621Z,83.65
2017-12-27T12:35:02.575Z,83.51
2017-12-27T12:36:02.667Z,83.44
2017-12-27T12:37:02.577Z,83.49
2017-12-27T12:38:02.618Z,83.70
2017-12-27T12:39:02.588Z,83.67
2017-12-27T12:40:02.628Z,83.67
2017-12-27T12:41:02.629Z,83.78
2017-12-27T12:42:02.626Z,83.94
2017-12-27T12:43:02.676Z,84.02
2017-12-27T12:44:02.722Z,84.09
2017-12-27T12:45:02.742Z,84.07
2017-12-27T12:46:02.723Z,84.31
2017-12-27T12:47:02.690Z,84.15
2017-12-27T12:48:02.660Z,84.39
2017-12-27T12:49:02.635Z,84.17
2017-12-27T12:50:02.701Z,84.17
2017-12-27T12:51:02.686Z,84.17
2017-12-27T12:52:02.619Z,84.15
2017-12-27T12:53:02.723Z,84.15
2017-12-27T12:54:02.706Z,83.99